DKH1097 ZGHA-ZPLJ

Flight info

Callsign DKH1097
Flight time 2h 37m
Altitude 32100
Route OLTUS W226 IPMUG W611 BIVAV W138 DYG W140 HUY A581 SGM A599 GULOT W146 BUBSU W162 DAL
Aircraft A320/M-SDE2E3FGILRWXY/LB2

Departure

Time 2026-04-12 12:31
Airport Changsha Huanghua International Airport (ZGHA)

Arrival

Time 2026-04-12 15:08
Airport Lijiang Sanyi International Airport (ZPLJ)
Time Latitude Longitude Altitude Speed Heading
2026-04-12 11:59 28.18661 113.21549 214 ft 0 kts 358°
2026-04-12 12:19 28.18660 113.21549 213 ft 1 kts 358°
2026-04-12 12:20 28.18645 113.21550 229 ft 3 kts 357°
2026-04-12 12:20 28.18625 113.21551 214 ft 3 kts
2026-04-12 12:20 28.18605 113.21549 215 ft 3 kts 12°
2026-04-12 12:20 28.18586 113.21542 219 ft 3 kts 27°
2026-04-12 12:21 28.18575 113.21535 217 ft 0 kts 38°
2026-04-12 12:21 28.18574 113.21535 217 ft 0 kts 38°
2026-04-12 12:23 28.18576 113.21537 217 ft 2 kts 43°
2026-04-12 12:24 28.18577 113.21565 216 ft 8 kts 86°
2026-04-12 12:24 28.18581 113.21660 213 ft 16 kts 87°
2026-04-12 12:24 28.18578 113.21791 214 ft 17 kts 116°
2026-04-12 12:24 28.18471 113.21817 213 ft 16 kts 176°
2026-04-12 12:25 28.18361 113.21824 218 ft 15 kts 176°
2026-04-12 12:25 28.18261 113.21830 218 ft 14 kts 177°
2026-04-12 12:25 28.18174 113.21836 218 ft 11 kts 176°
2026-04-12 12:25 28.18100 113.21841 219 ft 10 kts 176°
2026-04-12 12:26 28.18038 113.21845 214 ft 8 kts 176°
2026-04-12 12:26 28.17986 113.21848 219 ft 7 kts 176°
2026-04-12 12:26 28.17942 113.21851 219 ft 7 kts 176°
2026-04-12 12:26 28.17899 113.21854 219 ft 5 kts 176°
2026-04-12 12:27 28.17847 113.21856 214 ft 12 kts 177°
2026-04-12 12:27 28.17764 113.21872 215 ft 11 kts 152°
2026-04-12 12:27 28.17739 113.21939 215 ft 8 kts 96°
2026-04-12 12:27 28.17746 113.21994 218 ft 6 kts 75°
2026-04-12 12:28 28.17756 113.22040 218 ft 6 kts 81°
2026-04-12 12:28 28.17760 113.22103 215 ft 8 kts 87°
2026-04-12 12:28 28.17762 113.22168 214 ft 10 kts 88°
2026-04-12 12:28 28.17718 113.22243 214 ft 15 kts 167°
2026-04-12 12:29 28.17612 113.22252 218 ft 15 kts 178°
2026-04-12 12:29 28.17515 113.22268 214 ft 13 kts 148°
2026-04-12 12:29 28.17492 113.22355 217 ft 11 kts 85°
2026-04-12 12:29 28.17508 113.22431 219 ft 9 kts 56°
2026-04-12 12:30 28.17556 113.22451 214 ft 7 kts 354°
2026-04-12 12:30 28.17562 113.22450 214 ft 0 kts 354°
2026-04-12 12:30 28.17646 113.22443 217 ft 39 kts 356°
2026-04-12 12:30 28.18164 113.22412 217 ft 106 kts 356°
2026-04-12 12:31 28.19081 113.22356 220 ft 156 kts 357°
2026-04-12 12:31 28.20237 113.22325 698 ft 157 kts
2026-04-12 12:31 28.21263 113.22360 1516 ft 147 kts 358°
2026-04-12 12:31 28.22302 113.22250 2026 ft 156 kts 353°
2026-04-12 12:32 28.23451 113.22082 2312 ft 177 kts 353°
2026-04-12 12:32 28.24751 113.21899 2579 ft 199 kts 353°
2026-04-12 12:32 28.25697 113.21772 2757 ft 214 kts 354°
2026-04-12 12:32 28.27723 113.21517 3653 ft 222 kts 354°
2026-04-12 12:33 28.29281 113.21350 4367 ft 226 kts 354°
2026-04-12 12:33 28.30850 113.21230 5053 ft 231 kts 355°
2026-04-12 12:33 28.32471 113.21126 5749 ft 236 kts 355°
2026-04-12 12:33 28.34126 113.21025 6446 ft 240 kts 355°
2026-04-12 12:34 28.35810 113.20937 7131 ft 244 kts 359°
2026-04-12 12:34 28.37453 113.21450 7767 ft 253 kts 34°
2026-04-12 12:34 28.38565 113.22986 8398 ft 257 kts 72°
2026-04-12 12:34 28.38840 113.24988 9045 ft 259 kts 89°
2026-04-12 12:35 28.38951 113.27077 9699 ft 265 kts 89°
2026-04-12 12:35 28.39059 113.29156 9875 ft 267 kts 89°
2026-04-12 12:35 28.39029 113.31248 9917 ft 263 kts 107°
2026-04-12 12:35 28.38253 113.33061 9929 ft 253 kts 136°
2026-04-12 12:36 28.36811 113.34239 9939 ft 269 kts 164°
2026-04-12 12:36 28.34903 113.34569 9939 ft 285 kts 182°
2026-04-12 12:36 28.32911 113.34643 9919 ft 288 kts 181°
2026-04-12 12:36 28.30896 113.34734 9824 ft 294 kts 181°
2026-04-12 12:37 28.28875 113.34831 9788 ft 286 kts 181°
2026-04-12 12:37 28.26937 113.34546 9789 ft 280 kts 202°
2026-04-12 12:37 28.25273 113.33456 9790 ft 276 kts 223°
2026-04-12 12:37 28.24116 113.31735 9792 ft 276 kts 245°
2026-04-12 12:38 28.23564 113.29653 9795 ft 278 kts 256°
2026-04-12 12:38 28.23141 113.27516 9794 ft 278 kts 256°
2026-04-12 12:38 28.22716 113.25382 9794 ft 278 kts 256°
2026-04-12 12:38 28.22432 113.23967 9797 ft 278 kts 256°
2026-04-12 12:39 28.21894 113.21802 10059 ft 295 kts 248°
2026-04-12 12:39 28.20940 113.19645 10260 ft 318 kts 240°
2026-04-12 12:39 28.19807 113.17393 10402 ft 340 kts 240°
2026-04-12 12:39 28.18610 113.15005 10732 ft 354 kts 240°
2026-04-12 12:40 28.17391 113.12557 11369 ft 358 kts 240°
2026-04-12 12:40 28.16169 113.10095 12070 ft 359 kts 241°
2026-04-12 12:40 28.15171 113.07491 12770 ft 361 kts 252°
2026-04-12 12:40 28.14643 113.04714 13471 ft 363 kts 261°
2026-04-12 12:41 28.14294 113.01868 14109 ft 365 kts 261°
2026-04-12 12:41 28.13939 112.99014 14697 ft 366 kts 260°
2026-04-12 12:41 28.13601 112.96151 15270 ft 369 kts 263°
2026-04-12 12:41 28.13623 112.93233 15801 ft 373 kts 271°
2026-04-12 12:42 28.13804 112.90290 16340 ft 375 kts 271°
2026-04-12 12:42 28.14159 112.84365 17385 ft 379 kts 270°
2026-04-12 12:42 28.14332 112.81377 17884 ft 381 kts 270°
2026-04-12 12:43 28.14504 112.78367 18338 ft 383 kts 270°
2026-04-12 12:43 28.14675 112.75338 18743 ft 386 kts 271°
2026-04-12 12:43 28.14844 112.72295 19158 ft 388 kts 271°
2026-04-12 12:43 28.15018 112.69241 19477 ft 389 kts 271°
2026-04-12 12:44 28.15195 112.66183 19638 ft 390 kts 271°
2026-04-12 12:44 28.15371 112.63153 20069 ft 390 kts 271°
2026-04-12 12:44 28.15549 112.60081 20516 ft 391 kts 271°
2026-04-12 12:44 28.15724 112.57008 20941 ft 392 kts 271°
2026-04-12 12:45 28.15897 112.53914 21356 ft 394 kts 272°
2026-04-12 12:45 28.16068 112.50813 21749 ft 395 kts 272°
2026-04-12 12:45 28.16239 112.47698 22145 ft 396 kts 272°
2026-04-12 12:45 28.16412 112.44572 22522 ft 398 kts 272°
2026-04-12 12:46 28.16589 112.41431 22868 ft 400 kts 272°
2026-04-12 12:46 28.16763 112.38281 23227 ft 402 kts 272°
2026-04-12 12:46 28.16933 112.35157 23558 ft 403 kts 272°
2026-04-12 12:46 28.17104 112.31986 23863 ft 404 kts 272°
2026-04-12 12:47 28.17276 112.28806 24161 ft 405 kts 272°
2026-04-12 12:47 28.17446 112.25621 24469 ft 405 kts 272°
2026-04-12 12:47 28.17613 112.22433 24764 ft 406 kts 272°
2026-04-12 12:47 28.17851 112.19242 25058 ft 407 kts 274°
2026-04-12 12:48 28.18193 112.16060 25329 ft 408 kts 276°
2026-04-12 12:48 28.18602 112.12873 25635 ft 409 kts 276°
2026-04-12 12:48 28.19036 112.09688 25899 ft 410 kts 276°
2026-04-12 12:48 28.19468 112.06489 26176 ft 411 kts 276°
2026-04-12 12:49 28.19886 112.03279 26424 ft 411 kts 276°
2026-04-12 12:49 28.20296 112.00072 26689 ft 412 kts 277°
2026-04-12 12:49 28.21027 111.96921 26953 ft 417 kts 286°
2026-04-12 12:49 28.22272 111.93942 27331 ft 421 kts 295°
2026-04-12 12:50 28.23858 111.91138 27702 ft 421 kts 297°
2026-04-12 12:50 28.25444 111.88375 28104 ft 418 kts 297°
2026-04-12 12:50 28.27027 111.85613 28484 ft 415 kts 296°
2026-04-12 12:50 28.28599 111.82870 28877 ft 413 kts 296°
2026-04-12 12:51 28.30159 111.80148 29261 ft 410 kts 295°
2026-04-12 12:51 28.31709 111.77445 29717 ft 407 kts 295°
2026-04-12 12:51 28.33248 111.74762 30088 ft 405 kts 295°
2026-04-12 12:51 28.34780 111.72082 30363 ft 404 kts 295°
2026-04-12 12:52 28.36303 111.69413 30608 ft 403 kts 295°
2026-04-12 12:52 28.37825 111.66740 30813 ft 403 kts 295°
2026-04-12 12:52 28.39347 111.64060 31014 ft 404 kts 295°
2026-04-12 12:52 28.40872 111.61372 31232 ft 405 kts 295°
2026-04-12 12:53 28.42400 111.58686 31434 ft 406 kts 295°
2026-04-12 12:53 28.43938 111.55987 31679 ft 406 kts 295°
2026-04-12 12:53 28.45473 111.53295 31910 ft 407 kts 295°
2026-04-12 12:53 28.47015 111.50586 32007 ft 410 kts 295°
2026-04-12 12:54 28.50134 111.45102 32027 ft 414 kts 295°
2026-04-12 12:54 28.53249 111.39601 32031 ft 414 kts 295°
2026-04-12 12:55 28.56370 111.34088 32029 ft 414 kts 295°
2026-04-12 12:55 28.59488 111.28571 32031 ft 414 kts 295°
2026-04-12 12:56 28.62588 111.23090 32039 ft 415 kts 295°
2026-04-12 12:56 28.65709 111.17573 32039 ft 415 kts 295°
2026-04-12 12:57 28.68841 111.12057 32057 ft 415 kts 295°
2026-04-12 12:57 28.71996 111.06543 32076 ft 415 kts 295°
2026-04-12 12:58 28.75142 111.01034 32069 ft 414 kts 295°
2026-04-12 12:58 28.78272 110.95517 32068 ft 414 kts 295°
2026-04-12 12:59 28.81403 110.90005 32063 ft 414 kts 295°
2026-04-12 12:59 28.84527 110.84495 32066 ft 414 kts 295°
2026-04-12 13:00 28.87654 110.78978 32085 ft 414 kts 295°
2026-04-12 13:00 28.90776 110.73471 32075 ft 413 kts 295°
2026-04-12 13:01 28.93881 110.67971 32067 ft 412 kts 295°
2026-04-12 13:01 28.96983 110.62466 32067 ft 412 kts 295°
2026-04-12 13:02 29.00062 110.57006 32060 ft 412 kts 295°
2026-04-12 13:02 29.03158 110.51503 32060 ft 412 kts 295°
2026-04-12 13:03 29.06165 110.45963 32071 ft 405 kts 288°
2026-04-12 13:03 29.07048 110.42966 32061 ft 394 kts 276°
2026-04-12 13:03 29.07276 110.39881 32058 ft 387 kts 265°
2026-04-12 13:04 29.06877 110.36862 32053 ft 384 kts 254°
2026-04-12 13:04 29.05874 110.34024 32053 ft 386 kts 243°
2026-04-12 13:04 29.03082 110.28754 32051 ft 388 kts 242°
2026-04-12 13:05 29.00271 110.23497 32045 ft 388 kts 242°
2026-04-12 13:05 28.97464 110.18234 32036 ft 388 kts 242°
2026-04-12 13:06 28.94659 110.12973 32050 ft 388 kts 242°
2026-04-12 13:06 28.91846 110.07711 32048 ft 388 kts 242°
2026-04-12 13:07 28.89031 110.02472 32037 ft 388 kts 241°
2026-04-12 13:07 28.86213 109.97226 32005 ft 388 kts 241°
2026-04-12 13:08 28.83390 109.91974 32005 ft 388 kts 241°
2026-04-12 13:08 28.80568 109.86724 32007 ft 388 kts 241°
2026-04-12 13:09 28.77741 109.81480 32012 ft 388 kts 241°
2026-04-12 13:09 28.74936 109.76285 32016 ft 387 kts 241°
2026-04-12 13:10 28.72110 109.71053 32008 ft 388 kts 241°
2026-04-12 13:10 28.69279 109.65816 32005 ft 388 kts 241°
2026-04-12 13:11 28.66447 109.60586 32005 ft 388 kts 241°
2026-04-12 13:11 28.63610 109.55343 31989 ft 389 kts 241°
2026-04-12 13:12 28.60775 109.50111 31997 ft 388 kts 241°
2026-04-12 13:12 28.57952 109.44871 32015 ft 387 kts 244°
2026-04-12 13:13 28.55539 109.39407 32019 ft 387 kts 245°
2026-04-12 13:13 28.53137 109.33934 32016 ft 386 kts 245°
2026-04-12 13:14 28.50742 109.28464 32018 ft 386 kts 245°
2026-04-12 13:14 28.48331 109.23007 32014 ft 386 kts 245°
2026-04-12 13:15 28.45920 109.17543 32012 ft 386 kts 245°
2026-04-12 13:15 28.43518 109.12083 31984 ft 386 kts 245°
2026-04-12 13:16 28.41103 109.06631 31998 ft 387 kts 245°
2026-04-12 13:16 28.38674 109.01187 32003 ft 387 kts 245°
2026-04-12 13:17 28.36249 108.95733 31995 ft 387 kts 245°
2026-04-12 13:17 28.33847 108.90319 31996 ft 387 kts 245°
2026-04-12 13:18 28.31424 108.84875 31998 ft 387 kts 245°
2026-04-12 13:19 28.27770 108.76702 32007 ft 388 kts 245°
2026-04-12 13:19 28.25330 108.71253 32010 ft 387 kts 244°
2026-04-12 13:20 28.22889 108.65809 31965 ft 388 kts 245°
2026-04-12 13:20 28.20446 108.60357 31978 ft 388 kts 245°
2026-04-12 13:21 28.17998 108.54905 31985 ft 388 kts 244°
2026-04-12 13:21 28.15548 108.49456 31995 ft 388 kts 245°
2026-04-12 13:22 28.13101 108.44004 31999 ft 388 kts 245°
2026-04-12 13:22 28.10645 108.38559 32009 ft 389 kts 244°
2026-04-12 13:23 28.08187 108.33113 32011 ft 388 kts 244°
2026-04-12 13:23 28.05724 108.27666 32011 ft 389 kts 244°
2026-04-12 13:24 28.03253 108.22216 32014 ft 389 kts 244°
2026-04-12 13:24 28.01206 108.17694 31975 ft 389 kts 244°
2026-04-12 13:25 27.98738 108.12253 31982 ft 389 kts 244°
2026-04-12 13:25 27.96265 108.06812 31991 ft 388 kts 244°
2026-04-12 13:26 27.93789 108.01382 32001 ft 389 kts 244°
2026-04-12 13:26 27.91308 107.95947 32001 ft 389 kts 244°
2026-04-12 13:27 27.88837 107.90513 32001 ft 389 kts 244°
2026-04-12 13:27 27.86355 107.85081 32001 ft 389 kts 244°
2026-04-12 13:28 27.83869 107.79657 32005 ft 389 kts 244°
2026-04-12 13:28 27.81401 107.74226 32027 ft 388 kts 244°
2026-04-12 13:29 27.78976 107.68771 31980 ft 389 kts 245°
2026-04-12 13:29 27.76551 107.63309 31987 ft 390 kts 244°
2026-04-12 13:30 27.74111 107.57839 31995 ft 390 kts 245°
2026-04-12 13:30 27.71669 107.52376 31999 ft 390 kts 245°
2026-04-12 13:31 27.69226 107.46915 31999 ft 389 kts 245°
2026-04-12 13:31 27.66782 107.41466 31997 ft 390 kts 244°
2026-04-12 13:32 27.64328 107.36017 32012 ft 390 kts 244°
2026-04-12 13:32 27.61872 107.30570 32005 ft 390 kts 244°
2026-04-12 13:33 27.59418 107.25123 32004 ft 390 kts 244°
2026-04-12 13:33 27.56973 107.19709 31968 ft 390 kts 244°
2026-04-12 13:34 27.54501 107.14219 31972 ft 390 kts 245°
2026-04-12 13:34 27.52063 107.08798 31983 ft 391 kts 245°
2026-04-12 13:35 27.49592 107.03334 31988 ft 391 kts 244°
2026-04-12 13:35 27.47114 106.97879 31988 ft 391 kts 244°
2026-04-12 13:36 27.44659 106.92416 31991 ft 391 kts 245°
2026-04-12 13:36 27.42224 106.86944 31987 ft 391 kts 245°
2026-04-12 13:37 27.39787 106.81468 31988 ft 391 kts 245°
2026-04-12 13:37 27.37339 106.76002 31984 ft 391 kts 244°
2026-04-12 13:38 27.34882 106.70549 31984 ft 391 kts 244°
2026-04-12 13:38 27.32409 106.65091 31999 ft 391 kts 245°
2026-04-12 13:39 27.29948 106.59640 31995 ft 391 kts 244°
2026-04-12 13:39 27.27482 106.54190 31995 ft 391 kts 244°
2026-04-12 13:40 27.25009 106.48742 31991 ft 391 kts 244°
2026-04-12 13:40 27.22530 106.43298 31993 ft 392 kts 244°
2026-04-12 13:41 27.20054 106.37845 31990 ft 391 kts 244°
2026-04-12 13:41 27.17582 106.32399 32009 ft 391 kts 245°
2026-04-12 13:42 27.15115 106.26969 32005 ft 390 kts 244°
2026-04-12 13:42 27.12660 106.21579 31995 ft 390 kts 244°
2026-04-12 13:43 27.10190 106.16159 31968 ft 390 kts 245°
2026-04-12 13:43 27.07702 106.10735 31971 ft 391 kts 245°
2026-04-12 13:44 27.05215 106.05314 31972 ft 391 kts 245°
2026-04-12 13:44 27.02799 105.99838 31970 ft 391 kts 247°
2026-04-12 13:45 27.00626 105.94258 31994 ft 390 kts 248°
2026-04-12 13:45 26.98498 105.88661 31991 ft 390 kts 248°
2026-04-12 13:46 26.96327 105.83089 31987 ft 390 kts 248°
2026-04-12 13:46 26.94123 105.77538 31976 ft 390 kts 248°
2026-04-12 13:47 26.91920 105.71994 31975 ft 389 kts 248°
2026-04-12 13:47 26.89714 105.66446 31980 ft 389 kts 248°
2026-04-12 13:48 26.87514 105.60910 31949 ft 389 kts 248°
2026-04-12 13:48 26.85312 105.55364 31946 ft 390 kts 248°
2026-04-12 13:49 26.83147 105.49939 31927 ft 390 kts 248°
2026-04-12 13:49 26.80911 105.44338 31931 ft 390 kts 248°
2026-04-12 13:50 26.78695 105.38779 31935 ft 391 kts 248°
2026-04-12 13:50 26.76475 105.33229 31926 ft 391 kts 248°
2026-04-12 13:51 26.74263 105.27707 31944 ft 391 kts 248°
2026-04-12 13:51 26.72038 105.22156 31937 ft 391 kts 248°
2026-04-12 13:52 26.69805 105.16603 31930 ft 391 kts 247°
2026-04-12 13:52 26.67572 105.11070 31922 ft 390 kts 247°
2026-04-12 13:53 26.65341 105.05536 31893 ft 390 kts 247°
2026-04-12 13:53 26.62720 105.00230 31919 ft 392 kts 240°
2026-04-12 13:54 26.59738 104.95140 31912 ft 391 kts 240°
2026-04-12 13:54 26.56759 104.90054 31959 ft 391 kts 240°
2026-04-12 13:55 26.53786 104.84978 31948 ft 391 kts 240°
2026-04-12 13:55 26.50811 104.79915 31934 ft 390 kts 240°
2026-04-12 13:56 26.47840 104.74853 31927 ft 389 kts 240°
2026-04-12 13:56 26.44873 104.69800 31915 ft 389 kts 240°
2026-04-12 13:57 26.41897 104.64748 31916 ft 390 kts 239°
2026-04-12 13:57 26.38934 104.59726 31893 ft 390 kts 240°
2026-04-12 13:58 26.35948 104.54671 31896 ft 390 kts 240°
2026-04-12 13:58 26.32955 104.49612 31922 ft 391 kts 240°
2026-04-12 13:59 26.29963 104.44546 31935 ft 392 kts 240°
2026-04-12 13:59 26.26974 104.39475 31938 ft 392 kts 240°
2026-04-12 14:00 26.23966 104.34401 31963 ft 392 kts 240°
2026-04-12 14:00 26.20953 104.29334 31966 ft 392 kts 240°
2026-04-12 14:01 26.17942 104.24268 31967 ft 392 kts 240°
2026-04-12 14:01 26.14934 104.19210 31962 ft 392 kts 240°
2026-04-12 14:02 26.11922 104.14140 31968 ft 394 kts 240°
2026-04-12 14:02 26.08897 104.09052 31973 ft 395 kts 240°
2026-04-12 14:03 26.05859 104.03962 32000 ft 395 kts 240°
2026-04-12 14:03 26.02822 103.98873 32012 ft 395 kts 240°
2026-04-12 14:04 25.99780 103.93781 32019 ft 395 kts 240°
2026-04-12 14:04 25.96736 103.88691 32038 ft 395 kts 240°
2026-04-12 14:05 25.93721 103.83581 32048 ft 395 kts 241°
2026-04-12 14:05 25.89210 103.75894 32032 ft 398 kts 240°
2026-04-12 14:06 25.86173 103.70715 32038 ft 401 kts 240°
2026-04-12 14:06 25.83110 103.65524 32049 ft 402 kts 240°
2026-04-12 14:07 25.80037 103.60330 32071 ft 403 kts 240°
2026-04-12 14:07 25.76987 103.55167 32073 ft 403 kts 240°
2026-04-12 14:08 25.73914 103.49979 32071 ft 402 kts 240°
2026-04-12 14:08 25.70843 103.44791 32122 ft 402 kts 240°
2026-04-12 14:09 25.67784 103.39632 32124 ft 402 kts 240°
2026-04-12 14:09 25.64706 103.34441 32142 ft 401 kts 240°
2026-04-12 14:10 25.61641 103.29289 32116 ft 401 kts 240°
2026-04-12 14:10 25.58556 103.24125 32119 ft 402 kts 240°
2026-04-12 14:11 25.55473 103.18958 32137 ft 402 kts 240°
2026-04-12 14:11 25.52396 103.13795 32143 ft 402 kts 240°
2026-04-12 14:12 25.49310 103.08623 32141 ft 403 kts 240°
2026-04-12 14:12 25.46717 103.04291 32163 ft 403 kts 240°
2026-04-12 14:13 25.43618 102.99116 32161 ft 403 kts 240°
2026-04-12 14:13 25.40538 102.93981 32169 ft 403 kts 239°
2026-04-12 14:14 25.36927 102.89134 32139 ft 407 kts 234°
2026-04-12 14:14 25.33237 102.84363 32142 ft 408 kts 234°
2026-04-12 14:15 25.29540 102.79585 32169 ft 410 kts 234°
2026-04-12 14:15 25.25863 102.74826 32180 ft 410 kts 234°
2026-04-12 14:16 25.22129 102.70006 32182 ft 410 kts 234°
2026-04-12 14:16 25.18448 102.65257 32178 ft 410 kts 234°
2026-04-12 14:17 25.14724 102.60451 32166 ft 410 kts 234°
2026-04-12 14:17 25.11035 102.55705 32161 ft 410 kts 234°
2026-04-12 14:18 25.07552 102.50720 32138 ft 404 kts 244°
2026-04-12 14:18 25.04947 102.45233 32138 ft 404 kts 245°
2026-04-12 14:19 25.02361 102.39775 32144 ft 404 kts 246°
2026-04-12 14:19 24.99751 102.34299 32145 ft 404 kts 245°
2026-04-12 14:20 24.97131 102.28811 32140 ft 405 kts 245°
2026-04-12 14:20 24.94515 102.23328 32143 ft 404 kts 245°
2026-04-12 14:21 24.91895 102.17851 32127 ft 403 kts 245°
2026-04-12 14:21 24.89276 102.12388 32122 ft 403 kts 245°
2026-04-12 14:22 24.86658 102.06927 32122 ft 403 kts 245°
2026-04-12 14:22 24.84040 102.01452 32112 ft 404 kts 245°
2026-04-12 14:23 24.81413 101.95971 32097 ft 405 kts 245°
2026-04-12 14:23 24.78779 101.90495 32102 ft 405 kts 245°
2026-04-12 14:24 24.76136 101.85012 32102 ft 405 kts 245°
2026-04-12 14:24 24.73493 101.79544 32105 ft 405 kts 245°
2026-04-12 14:25 24.70855 101.74065 32089 ft 405 kts 245°
2026-04-12 14:25 24.68221 101.68600 32082 ft 404 kts 245°
2026-04-12 14:26 24.65580 101.63134 32083 ft 405 kts 245°
2026-04-12 14:26 24.63595 101.57420 32085 ft 400 kts 261°
2026-04-12 14:27 24.63414 101.54365 32083 ft 401 kts 272°
2026-04-12 14:27 24.63804 101.51330 32084 ft 404 kts 281°
2026-04-12 14:27 24.65453 101.45412 32086 ft 405 kts 284°
2026-04-12 14:28 24.67122 101.39501 32069 ft 404 kts 283°
2026-04-12 14:28 24.68798 101.33588 32068 ft 405 kts 284°
2026-04-12 14:29 24.70466 101.27651 32077 ft 406 kts 283°
2026-04-12 14:29 24.72122 101.21742 32081 ft 407 kts 283°
2026-04-12 14:30 24.73790 101.15802 32081 ft 407 kts 283°
2026-04-12 14:30 24.75459 101.09854 32085 ft 406 kts 283°
2026-04-12 14:31 24.77120 101.03909 32087 ft 406 kts 283°
2026-04-12 14:31 24.78776 100.97966 32077 ft 406 kts 283°
2026-04-12 14:32 24.80431 100.92023 32079 ft 406 kts 283°
2026-04-12 14:32 24.82085 100.86089 32080 ft 406 kts 283°
2026-04-12 14:33 24.83740 100.80139 32082 ft 407 kts 283°
2026-04-12 14:33 24.85391 100.74175 32083 ft 407 kts 283°
2026-04-12 14:34 24.87042 100.68216 32074 ft 407 kts 283°
2026-04-12 14:34 24.88693 100.62253 32071 ft 407 kts 283°
2026-04-12 14:35 24.90342 100.56292 31882 ft 407 kts 283°
2026-04-12 14:35 24.91161 100.53314 31643 ft 406 kts 283°
2026-04-12 14:35 24.91979 100.50338 31406 ft 405 kts 283°
2026-04-12 14:36 24.92794 100.47376 31171 ft 405 kts 283°
2026-04-12 14:36 24.93607 100.44409 30939 ft 404 kts 283°
2026-04-12 14:36 24.94420 100.41439 30699 ft 404 kts 283°
2026-04-12 14:36 24.95228 100.38482 30478 ft 404 kts 283°
2026-04-12 14:37 24.96040 100.35516 30245 ft 404 kts 284°
2026-04-12 14:37 24.97081 100.32639 30009 ft 408 kts 294°
2026-04-12 14:37 24.98684 100.30031 29752 ft 417 kts 304°
2026-04-12 14:37 25.00818 100.27819 29481 ft 429 kts 316°
2026-04-12 14:38 25.03439 100.26150 29210 ft 444 kts 328°
2026-04-12 14:38 25.06452 100.25165 28952 ft 462 kts 341°
2026-04-12 14:38 25.09732 100.25014 28691 ft 482 kts 356°
2026-04-12 14:38 25.13086 100.25445 28433 ft 487 kts 358°
2026-04-12 14:39 25.16447 100.25909 28057 ft 485 kts 358°
2026-04-12 14:39 25.19788 100.26372 27014 ft 485 kts 358°
2026-04-12 14:39 25.23156 100.26831 25865 ft 489 kts 358°
2026-04-12 14:39 25.26501 100.27278 24749 ft 492 kts 358°
2026-04-12 14:40 25.29954 100.27734 23683 ft 495 kts 358°
2026-04-12 14:40 25.33309 100.28182 22851 ft 490 kts 359°
2026-04-12 14:40 25.36667 100.28635 22066 ft 483 kts 359°
2026-04-12 14:40 25.39978 100.29085 21323 ft 477 kts 359°
2026-04-12 14:41 25.43257 100.29529 20572 ft 471 kts 360°
2026-04-12 14:41 25.46486 100.29964 19880 ft 464 kts 360°
2026-04-12 14:41 25.49672 100.30388 19209 ft 459 kts
2026-04-12 14:41 25.52834 100.30805 18745 ft 456 kts
2026-04-12 14:42 25.55985 100.31221 18560 ft 456 kts
2026-04-12 14:42 25.59132 100.31638 18548 ft 455 kts
2026-04-12 14:42 25.62266 100.32059 18546 ft 454 kts
2026-04-12 14:42 25.65383 100.32771 18534 ft 460 kts 10°
2026-04-12 14:43 25.68427 100.33910 18540 ft 463 kts 13°
2026-04-12 14:43 25.71469 100.35094 18530 ft 463 kts 13°
2026-04-12 14:43 25.74511 100.36277 18461 ft 462 kts 13°
2026-04-12 14:43 25.77401 100.37404 17835 ft 455 kts 13°
2026-04-12 14:44 25.80416 100.38580 17111 ft 450 kts 14°
2026-04-12 14:44 25.83354 100.39725 16390 ft 445 kts 14°
2026-04-12 14:44 25.86267 100.40858 15776 ft 442 kts 14°
2026-04-12 14:44 25.89167 100.41984 15557 ft 441 kts 14°
2026-04-12 14:45 25.92061 100.43103 15488 ft 439 kts 14°
2026-04-12 14:45 25.94937 100.44220 15519 ft 439 kts 14°
2026-04-12 14:45 25.97816 100.45342 15508 ft 439 kts 14°
2026-04-12 14:45 26.00703 100.46469 15491 ft 439 kts 14°
2026-04-12 14:46 26.03588 100.47599 15504 ft 440 kts 14°
2026-04-12 14:46 26.06471 100.48730 15481 ft 439 kts 14°
2026-04-12 14:46 26.09346 100.49855 15496 ft 439 kts 14°
2026-04-12 14:46 26.12230 100.50982 15479 ft 439 kts 14°
2026-04-12 14:47 26.15113 100.52108 15478 ft 439 kts 14°
2026-04-12 14:47 26.17992 100.53235 15487 ft 437 kts 14°
2026-04-12 14:47 26.20866 100.54360 15470 ft 439 kts 14°
2026-04-12 14:47 26.23748 100.55486 15474 ft 439 kts 14°
2026-04-12 14:48 26.26636 100.56616 15476 ft 439 kts 14°
2026-04-12 14:48 26.29482 100.57731 15482 ft 441 kts 14°
2026-04-12 14:48 26.32004 100.58719 15477 ft 442 kts 14°
2026-04-12 14:48 26.34866 100.59847 15479 ft 439 kts 15°
2026-04-12 14:49 26.37698 100.60962 15469 ft 436 kts 15°
2026-04-12 14:49 26.40515 100.62059 15461 ft 436 kts 14°
2026-04-12 14:49 26.43381 100.63159 15464 ft 427 kts 14°
2026-04-12 14:49 26.46121 100.64210 15460 ft 405 kts 14°
2026-04-12 14:50 26.48711 100.65205 15470 ft 385 kts 13°
2026-04-12 14:50 26.51191 100.66156 15462 ft 368 kts 12°
2026-04-12 14:50 26.53562 100.67064 15462 ft 352 kts 12°
2026-04-12 14:50 26.55834 100.67932 15461 ft 338 kts 12°
2026-04-12 14:51 26.58012 100.68763 15461 ft 324 kts 12°
2026-04-12 14:51 26.60100 100.69562 15456 ft 312 kts 12°
2026-04-12 14:51 26.62124 100.70339 15456 ft 303 kts 11°
2026-04-12 14:51 26.64076 100.71089 15453 ft 291 kts 11°
2026-04-12 14:52 26.65970 100.71818 15366 ft 285 kts 10°
2026-04-12 14:52 26.67839 100.72147 15235 ft 260 kts 342°
2026-04-12 14:52 26.69384 100.71412 15116 ft 233 kts 311°
2026-04-12 14:52 26.70276 100.70017 14997 ft 215 kts 286°
2026-04-12 14:53 26.70744 100.68457 14797 ft 211 kts 289°
2026-04-12 14:53 26.71444 100.67013 14557 ft 213 kts 300°
2026-04-12 14:53 26.72411 100.65748 14335 ft 214 kts 306°
2026-04-12 14:53 26.73429 100.64536 14092 ft 213 kts 306°
2026-04-12 14:54 26.74442 100.63333 13832 ft 212 kts 306°
2026-04-12 14:54 26.75447 100.62139 13593 ft 210 kts 306°
2026-04-12 14:54 26.76433 100.60968 13420 ft 200 kts 306°
2026-04-12 14:54 26.77359 100.59873 13287 ft 187 kts 306°
2026-04-12 14:55 26.78219 100.58851 13146 ft 173 kts 308°
2026-04-12 14:55 26.79007 100.57915 12958 ft 160 kts 307°
2026-04-12 14:55 26.79766 100.57009 12569 ft 159 kts 308°
2026-04-12 14:55 26.80518 100.56109 12252 ft 154 kts 308°
2026-04-12 14:56 26.81253 100.55227 12268 ft 157 kts 307°
2026-04-12 14:56 26.81748 100.54633 12267 ft 157 kts 307°
2026-04-12 14:56 26.82496 100.53738 12269 ft 158 kts 307°
2026-04-12 14:56 26.83253 100.52836 12278 ft 160 kts 308°
2026-04-12 14:57 26.84011 100.51932 12279 ft 159 kts 307°
2026-04-12 14:57 26.85014 100.50734 12270 ft 159 kts 307°
2026-04-12 14:57 26.85770 100.49830 12280 ft 160 kts 308°
2026-04-12 14:57 26.86529 100.48922 12271 ft 159 kts 308°
2026-04-12 14:58 26.87282 100.48022 12272 ft 158 kts 308°
2026-04-12 14:58 26.88037 100.47121 12271 ft 158 kts 309°
2026-04-12 14:58 26.88793 100.46221 12271 ft 158 kts 309°
2026-04-12 14:58 26.89308 100.45621 12274 ft 159 kts 309°
2026-04-12 14:59 26.90074 100.44735 12271 ft 157 kts 309°
2026-04-12 14:59 26.90837 100.43852 12268 ft 158 kts 310°
2026-04-12 14:59 26.91594 100.42975 12286 ft 160 kts 308°
2026-04-12 14:59 26.92372 100.42071 12290 ft 158 kts 309°
2026-04-12 15:00 26.93899 100.40294 12297 ft 159 kts 309°
2026-04-12 15:00 26.94665 100.39406 12289 ft 157 kts 309°
2026-04-12 15:00 26.95278 100.38430 12287 ft 155 kts 292°
2026-04-12 15:01 26.95581 100.37268 12298 ft 158 kts 276°
2026-04-12 15:01 26.95537 100.36035 12292 ft 160 kts 259°
2026-04-12 15:01 26.95137 100.34875 12289 ft 161 kts 243°
2026-04-12 15:01 26.94410 100.33920 12278 ft 163 kts 222°
2026-04-12 15:02 26.93389 100.33371 12269 ft 161 kts 208°
2026-04-12 15:02 26.92361 100.32952 12187 ft 161 kts 206°
2026-04-12 15:02 26.91308 100.32564 11995 ft 158 kts 204°
2026-04-12 15:02 26.90258 100.32193 11821 ft 159 kts 204°
2026-04-12 15:03 26.89201 100.31827 11657 ft 158 kts 203°
2026-04-12 15:03 26.88149 100.31464 11594 ft 160 kts 203°
2026-04-12 15:03 26.87086 100.31100 11409 ft 159 kts 202°
2026-04-12 15:03 26.86036 100.30740 11200 ft 157 kts 203°
2026-04-12 15:04 26.85001 100.30386 10976 ft 155 kts 204°
2026-04-12 15:04 26.83972 100.30034 10744 ft 155 kts 204°
2026-04-12 15:04 26.82948 100.29683 10515 ft 153 kts 203°
2026-04-12 15:04 26.81947 100.29341 10305 ft 153 kts 201°
2026-04-12 15:05 26.80929 100.28993 10081 ft 153 kts 201°
2026-04-12 15:05 26.79905 100.28642 9863 ft 154 kts 201°
2026-04-12 15:05 26.78887 100.28294 9609 ft 151 kts 203°
2026-04-12 15:05 26.77882 100.27951 9370 ft 151 kts 202°
2026-04-12 15:06 26.76883 100.27609 9162 ft 150 kts 203°
2026-04-12 15:06 26.75888 100.27269 8927 ft 149 kts 204°
2026-04-12 15:06 26.74903 100.26933 8706 ft 147 kts 205°
2026-04-12 15:06 26.73924 100.26598 8495 ft 148 kts 202°
2026-04-12 15:07 26.72944 100.26264 8304 ft 147 kts 202°
2026-04-12 15:07 26.71960 100.25927 8100 ft 148 kts 201°
2026-04-12 15:07 26.70967 100.25588 7883 ft 151 kts 200°
2026-04-12 15:07 26.69957 100.25242 7638 ft 152 kts 200°
2026-04-12 15:08 26.68951 100.24910 7393 ft 151 kts 200°
2026-04-12 15:08 26.68034 100.24586 7328 ft 106 kts 197°
2026-04-12 15:08 26.67555 100.24423 7326 ft 57 kts 198°
2026-04-12 15:08 26.67269 100.24341 7328 ft 33 kts 197°
2026-04-12 15:09 26.67197 100.24375 7330 ft 10 kts 114°
2026-04-12 15:09 26.67173 100.24437 7329 ft 8 kts 114°
2026-04-12 15:09 26.67164 100.24487 7330 ft 6 kts 96°
2026-04-12 15:09 26.67157 100.24520 7328 ft 4 kts 105°
2026-04-12 15:10 26.67151 100.24545 7328 ft 4 kts 105°
2026-04-12 15:10 26.67144 100.24569 7328 ft 2 kts 108°
2026-04-12 15:10 26.67142 100.24578 7328 ft 0 kts 108°